ADDS METAR Data INFO
IDs: Format: Raw Decoded Include TAF

Data at: 0340 UTC 24 Feb 2017

METAR for:KJCT (Junction/Kimble Cnty, TX, US)
Text:KJCT 240251Z AUTO 18005KT 10SM CLR 20/02 A2961 RMK AO2 SLP001 T02000022 53018
Temperature: 20.0°C ( 68°F)
Dewpoint: 2.2°C ( 36°F) [RH = 31%]
Pressure (altimeter):29.61 inches Hg (1002.8 mb) [Sea level pressure: 1000.1 mb]
Winds:from the S (180 degrees) at 6 MPH (5 knots; 2.6 m/s)
Visibility:10 or more sm (16+ km)
Ceiling:at least 12,000 feet AGL
Clouds:sky clear below 12,000 feet AGL
QC Flag:automated observation with no human augmentation


Page loaded:  03:40 UTC  |   07:40 PM Pacific  |   08:40 PM Mountain  |   09:40 PM Central  |   10:40 PM Eastern

 

ADVISORIES

FORECASTS

FORECASTS

OBSERVATIONS

USER TOOLS

ABOUT US